.
WxDataArchive / Data Records for 2013-01-03
2013-01-02 January 2013 2013-01-04

Data Records for Thursday, 03 January 2013

Time	Temp	Chill	HIndex	Humid	Dewpt	 Wind 	HiWind	WindDir	Rain 	Barom 
-----	----	-----	------	-----	-----	------	------	-------	-----	----- 
00:00	11.1	11.1	11.1	67	2.3	0	1	248	0.00	30.214 
00:05	11.1	11.1	11.1	67	2.3	0	0	---	0.00	30.214 
00:10	11.1	11.1	11.1	67	2.3	0	0	---	0.00	30.214 
00:15	11.1	11.1	11.1	67	2.3	0	0	---	0.00	30.213 
00:20	11.1	11.1	11.1	68	2.6	0	2	248	0.00	30.213 
00:25	11.2	11.2	11.2	68	2.7	0	1	248	0.00	30.213 
00:30	11.4	11.4	11.4	68	2.9	0	1	248	0.00	30.211 
00:35	11.6	11.6	11.6	68	3.1	0	1	248	0.00	30.211 
00:40	11.6	11.6	11.6	68	3.1	0	1	248	0.00	30.211 
00:45	11.6	11.6	11.6	68	3.1	0	0	---	0.00	30.204 
00:50	11.6	11.6	11.6	68	3.1	0	1	248	0.00	30.204 
00:55	11.4	11.4	11.4	68	2.9	0	0	---	0.00	30.204 
01:00	11.4	11.4	11.4	68	2.9	0	0	---	0.00	30.202 
01:05	11.4	11.4	11.4	68	2.9	0	0	---	0.00	30.202 
01:10	11.2	11.2	11.2	68	2.7	0	0	---	0.00	30.202 
01:15	11.2	11.2	11.2	68	2.7	0	1	248	0.00	30.198 
01:20	11.2	11.2	11.2	68	2.7	0	0	---	0.00	30.198 
01:25	11.2	11.2	11.2	68	2.7	0	1	248	0.00	30.198 
01:30	11.2	11.2	11.2	68	2.7	0	1	248	0.00	30.198 
01:35	11.4	11.4	11.4	68	2.9	0	1	248	0.00	30.198 
01:40	11.4	11.4	11.4	68	2.9	0	1	248	0.00	30.198 
01:45	11.6	11.6	11.6	68	3.1	0	2	248	0.00	30.193 
01:50	11.6	11.6	11.6	68	3.1	0	1	248	0.00	30.193 
01:55	11.4	11.4	11.4	68	2.9	0	1	248	0.00	30.193 
02:00	11.4	11.4	11.4	68	2.9	0	1	248	0.00	30.194 
02:05	11.4	11.4	11.4	68	2.9	0	1	248	0.00	30.194 
02:10	11.4	11.4	11.4	68	2.9	0	1	248	0.00	30.194 
02:15	11.6	11.6	11.6	68	3.1	0	1	248	0.00	30.197 
02:20	11.6	11.6	11.6	68	3.1	0	1	248	0.00	30.197 
02:25	11.6	11.6	11.6	68	3.1	0	0	---	0.00	30.197 
02:30	11.6	11.6	11.6	68	3.1	0	1	248	0.00	30.196 
02:35	11.7	11.7	11.7	68	3.2	0	1	248	0.00	30.196 
02:40	11.9	11.9	11.9	69	3.7	0	1	248	0.00	30.196 
02:45	11.9	11.9	11.9	69	3.7	0	0	---	0.00	30.199 
02:50	12.1	12.1	12.1	69	3.9	0	1	248	0.00	30.199 
02:55	12.3	12.3	12.3	69	4.1	0	1	248	0.00	30.199 
03:00	12.4	12.4	12.4	69	4.2	0	2	248	0.00	30.200 
03:05	12.6	12.6	12.6	69	4.4	0	1	248	0.00	30.200 
03:10	12.6	12.6	12.6	68	4.1	0	2	248	0.00	30.200 
03:15	12.8	12.8	12.8	68	4.3	0	1	248	0.00	30.194 
03:20	12.8	12.8	12.8	68	4.3	0	1	248	0.00	30.194 
03:25	12.8	12.8	12.8	68	4.3	0	0	---	0.00	30.194 
03:30	12.8	12.8	12.8	68	4.3	0	1	248	0.00	30.192 
03:35	12.9	12.9	12.9	68	4.4	0	3	248	0.00	30.192 
03:40	13.1	13.1	13.1	68	4.6	0	2	248	0.00	30.192 
03:45	13.1	13.1	13.1	68	4.6	0	1	248	0.00	30.194 
03:50	13.3	13.3	13.3	68	4.7	0	2	248	0.00	30.194 
03:55	13.5	13.5	13.5	67	4.6	0	3	248	0.00	30.194 
04:00	13.5	13.5	13.5	67	4.6	0	1	248	0.00	30.194 
04:05	13.5	13.5	13.5	67	4.6	0	1	248	0.00	30.194 
04:10	13.5	13.5	13.5	67	4.6	0	1	248	0.00	30.194 
04:15	13.3	13.3	13.3	67	4.4	0	2	248	0.00	30.183 
04:20	13.3	13.3	13.3	66	4.1	0	1	248	0.00	30.183 
04:25	13.1	13.1	13.1	67	4.2	0	1	248	0.00	30.183 
04:30	13.1	13.1	13.1	67	4.2	0	1	248	0.00	30.188 
04:35	13.3	13.3	13.3	67	4.4	0	1	248	0.00	30.188 
04:40	13.5	13.5	13.5	68	4.9	0	2	248	0.00	30.188 
04:45	13.6	13.6	13.6	67	4.7	0	1	248	0.00	30.180 
04:50	14.0	14.0	14.0	67	5.1	0	1	248	0.00	30.180 
04:55	14.1	14.1	14.1	67	5.2	0	1	248	0.00	30.180 
05:00	14.4	14.4	14.4	67	5.5	0	2	248	0.00	30.180 
05:05	14.8	14.8	14.8	66	5.5	0	3	248	0.00	30.180 
05:10	14.9	14.9	14.9	65	5.3	0	2	248	0.00	30.180 
05:15	15.2	15.2	15.2	65	5.6	0	2	248	0.00	30.180 
05:20	15.4	15.4	15.4	65	5.8	0	3	248	0.00	30.180 
05:25	15.4	15.4	15.4	64	5.4	0	2	248	0.00	30.180 
05:30	15.7	15.7	15.7	64	5.7	0	4	248	0.00	30.182 
05:35	15.7	15.7	15.7	64	5.7	0	2	248	0.00	30.182 
05:40	15.9	15.9	15.9	64	5.9	0	2	248	0.00	30.182 
05:45	16.1	16.1	16.1	63	5.8	0	1	248	0.00	30.184 
05:50	16.2	16.2	16.2	63	5.9	0	2	248	0.00	30.184 
05:55	16.4	16.4	16.4	63	6.0	0	1	248	0.00	30.184 
06:00	16.5	16.5	16.5	62	5.8	0	3	248	0.00	30.183 
06:05	16.7	16.7	16.7	62	6.0	0	2	248	0.00	30.183 
06:10	16.9	16.9	16.9	62	6.2	0	2	248	0.00	30.183 
06:15	17.0	17.0	17.0	61	5.9	0	3	248	0.00	30.180 
06:20	17.2	17.2	17.2	61	6.1	0	3	248	0.00	30.180 
06:25	17.2	17.2	17.2	60	5.7	1	3	248	0.00	30.180 
06:30	17.3	17.3	17.3	60	5.8	0	4	248	0.00	30.181 
06:35	17.3	17.3	17.3	60	5.8	0	3	248	0.00	30.181 
06:40	17.3	17.3	17.3	61	6.2	0	2	248	0.00	30.181 
06:45	17.5	17.5	17.5	61	6.4	0	1	248	0.00	30.183 
06:50	17.5	17.5	17.5	61	6.4	0	3	248	0.00	30.183 
06:55	17.5	17.5	17.5	61	6.4	0	3	248	0.00	30.183 
07:00	17.7	17.7	17.7	62	6.9	0	2	248	0.00	30.181 
07:05	17.8	17.8	17.8	62	7.0	0	2	248	0.00	30.181 
07:10	18.1	18.1	18.1	61	6.9	1	3	248	0.00	30.181 
07:15	18.3	18.3	18.3	62	7.5	0	4	248	0.00	30.182 
07:20	18.6	18.6	18.6	61	7.4	1	3	248	0.00	30.182 
07:25	18.8	18.8	18.8	61	7.6	1	5	248	0.00	30.182 
07:30	19.1	19.1	19.1	61	7.9	1	4	248	0.00	30.180 
07:35	19.2	19.2	19.2	61	8.0	1	4	248	0.00	30.180 
07:40	19.4	19.4	19.4	60	7.8	1	4	248	0.00	30.180 
07:45	19.4	19.4	19.4	60	7.8	1	4	248	0.00	30.179 
07:50	19.5	19.5	19.5	60	7.9	1	6	248	0.00	30.179 
07:55	19.5	19.5	19.5	60	7.9	1	5	248	0.00	30.179 
08:00	19.7	19.7	19.7	61	8.5	1	3	248	0.00	30.179 
08:05	19.7	19.7	19.7	61	8.5	1	6	248	0.00	30.179 
08:10	19.9	19.9	19.9	61	8.7	1	5	248	0.00	30.179 
08:15	19.9	19.9	19.9	61	8.7	1	4	248	0.00	30.181 
08:20	19.9	19.9	19.9	61	8.7	1	5	248	0.00	30.181 
08:25	19.9	19.9	19.9	62	9.0	1	3	248	0.00	30.181 
08:30	20.0	20.0	20.0	62	9.1	0	4	248	0.00	30.177 
08:35	20.0	20.0	20.0	62	9.1	1	3	248	0.00	30.177 
08:40	19.9	19.9	19.9	62	9.0	1	4	248	0.00	30.177 
08:45	19.9	19.9	19.9	62	9.0	1	4	248	0.00	30.181 
08:50	20.0	20.0	20.0	62	9.1	1	5	248	0.00	30.181 
08:55	20.0	20.0	20.0	62	9.1	1	3	248	0.00	30.181 
09:00	20.2	20.2	20.2	62	9.3	1	5	248	0.00	30.185 
09:05	20.3	20.3	20.3	63	9.7	0	3	248	0.00	30.185 
09:10	20.5	20.5	20.5	63	9.9	2	6	248	0.00	30.185 
09:15	20.6	20.6	20.6	62	9.7	2	5	248	0.00	30.184 
09:20	20.6	20.6	20.6	63	10.0	1	5	248	0.00	30.184 
09:25	21.0	21.0	21.0	63	10.4	1	3	248	0.00	30.184 
09:30	21.1	21.1	21.1	63	10.5	2	6	248	0.00	30.191 
09:35	21.1	21.1	21.1	63	10.5	1	5	248	0.00	30.191 
09:40	21.4	21.4	21.4	64	11.1	1	5	248	0.00	30.191 
09:45	21.6	21.6	21.6	65	11.7	1	5	248	0.00	30.192 
09:50	21.9	21.9	21.9	65	12.0	1	3	248	0.00	30.192 
09:55	22.1	22.1	22.1	65	12.2	1	5	248	0.00	30.192 
10:00	22.2	22.2	22.2	65	12.3	2	6	248	0.00	30.192 
10:05	22.4	22.4	22.4	66	12.8	2	5	248	0.00	30.192 
10:10	22.7	22.7	22.7	66	13.1	2	5	248	0.00	30.192 
10:15	22.9	22.9	22.9	67	13.6	1	4	248	0.00	30.194 
10:20	23.2	23.2	23.2	67	13.9	1	5	248	0.00	30.194 
10:25	23.5	23.5	23.5	67	14.2	1	4	248	0.00	30.194 
10:30	23.6	23.6	23.6	68	14.6	2	5	248	0.00	30.200 
10:35	23.8	23.8	23.8	67	14.5	2	7	248	0.00	30.200 
10:40	23.8	23.8	23.8	67	14.5	2	5	248	0.00	30.200 
10:45	23.9	23.9	23.9	68	14.9	2	5	248	0.00	30.209 
10:50	24.2	24.2	24.2	69	15.5	1	4	248	0.00	30.209 
10:55	24.5	24.5	24.5	69	15.8	1	6	248	0.00	30.209 
11:00	25.0	25.0	25.0	69	16.3	1	3	248	0.00	30.203 
11:05	25.1	25.1	25.1	69	16.4	3	10	248	0.00	30.203 
11:10	25.3	25.3	25.3	69	16.6	2	5	248	0.00	30.203 
11:15	25.6	25.6	25.6	70	17.2	1	2	248	0.00	30.207 
11:20	25.8	25.8	25.8	70	17.4	1	4	248	0.00	30.207 
11:25	26.0	26.0	26.0	71	17.9	1	5	248	0.00	30.207 
11:30	26.3	26.3	26.3	71	18.2	1	4	248	0.00	30.205 
11:35	26.4	26.4	26.4	71	18.3	2	6	225	0.00	30.205 
11:40	26.6	26.6	26.6	72	18.8	1	3	270	0.00	30.205 
11:45	26.7	26.7	26.7	72	18.9	2	7	270	0.00	30.203 
11:50	26.9	26.9	26.9	73	19.4	1	4	248	0.00	30.203 
11:55	27.0	27.0	27.0	73	19.5	2	5	248	0.00	30.203 
12:00	27.2	27.2	27.2	73	19.7	2	7	248	0.00	30.194 
12:05	27.3	27.3	27.3	73	19.8	2	5	248	0.00	30.194 
12:10	27.2	27.2	27.2	74	20.0	2	3	248	0.00	30.194 
12:15	27.2	27.2	27.2	75	20.3	3	7	248	0.00	30.191 
12:20	27.3	27.3	27.3	75	20.4	2	6	248	0.00	30.191 
12:25	27.2	27.2	27.2	75	20.3	2	6	248	0.00	30.191 
12:30	27.0	27.0	27.0	76	20.5	3	6	248	0.00	30.191 
12:35	27.0	27.0	27.0	76	20.5	2	7	248	0.00	30.191 
12:40	26.9	26.9	26.9	76	20.4	2	4	248	0.00	30.191 
12:45	26.9	26.9	26.9	76	20.4	2	5	248	0.00	30.188 
12:50	26.9	26.9	26.9	76	20.4	3	6	248	0.00	30.188 
12:55	26.9	26.9	26.9	77	20.7	2	5	248	0.00	30.188 
13:00	27.0	27.0	27.0	77	20.8	2	5	248	0.00	30.180 
13:05	27.2	27.2	27.2	77	21.0	2	5	248	0.00	30.180 
13:10	27.2	27.2	27.2	77	21.0	2	5	270	0.00	30.180 
13:15	27.5	27.5	27.5	77	21.3	2	5	270	0.00	30.174 
13:20	27.8	27.8	27.8	77	21.5	2	5	248	0.00	30.174 
13:25	27.8	27.8	27.8	76	21.2	3	8	248	0.00	30.174 
13:30	27.9	27.9	27.9	76	21.3	2	5	248	0.00	30.173 
13:35	28.1	28.1	28.1	75	21.2	2	5	248	0.00	30.173 
13:40	28.2	28.2	28.2	75	21.3	3	7	248	0.00	30.173 
13:45	28.2	28.2	28.2	75	21.3	3	9	248	0.00	30.174 
13:50	28.2	28.2	28.2	75	21.3	2	7	248	0.00	30.174 
13:55	28.2	28.2	28.2	75	21.3	3	6	248	0.00	30.174 
14:00	28.4	28.4	28.4	75	21.5	3	6	248	0.00	30.174 
14:05	28.4	28.4	28.4	74	21.2	2	7	248	0.00	30.174 
14:10	28.4	28.4	28.4	74	21.2	2	6	270	0.00	30.174 
14:15	28.5	28.5	28.5	74	21.3	2	6	225	0.00	30.175 
14:20	28.5	28.5	28.5	74	21.3	3	7	248	0.00	30.175 
14:25	28.5	28.5	28.5	73	21.0	3	7	248	0.00	30.175 
14:30	28.5	28.5	28.5	74	21.3	3	10	248	0.00	30.175 
14:35	28.4	28.4	28.4	74	21.2	2	4	248	0.00	30.175 
14:40	28.5	28.5	28.5	75	21.6	1	5	248	0.00	30.175 
14:45	28.5	28.5	28.5	75	21.6	2	10	248	0.00	30.180 
14:50	28.5	28.5	28.5	75	21.6	2	7	248	0.00	30.180 
14:55	28.4	28.4	28.4	75	21.5	2	5	248	0.00	30.180 
15:00	28.2	28.2	28.2	75	21.3	2	6	248	0.00	30.188 
15:05	28.1	28.1	28.1	76	21.5	3	7	248	0.00	30.188 
15:10	28.1	28.1	28.1	76	21.5	3	9	248	0.00	30.188 
15:15	28.1	28.1	28.1	77	21.8	2	5	248	0.00	30.192 
15:20	28.1	28.1	28.1	77	21.8	2	9	248	0.00	30.192 
15:25	28.1	28.1	28.1	77	21.8	3	6	248	0.00	30.192 
15:30	28.1	28.1	28.1	77	21.8	3	6	248	0.00	30.194 
15:35	28.2	28.2	28.2	78	22.2	2	8	225	0.00	30.194 
15:40	28.2	28.2	28.2	78	22.2	3	10	248	0.00	30.194 
15:45	28.2	28.2	28.2	78	22.2	3	6	248	0.00	30.200 
15:50	28.4	28.4	28.4	78	22.4	3	7	248	0.00	30.200 
15:55	28.4	28.4	28.4	78	22.4	2	6	248	0.00	30.200 
16:00	28.4	28.4	28.4	78	22.4	2	5	248	0.00	30.202 
16:05	28.4	28.4	28.4	78	22.4	2	5	248	0.00	30.202 
16:10	28.4	28.4	28.4	78	22.4	3	9	248	0.00	30.202 
16:15	28.4	28.4	28.4	78	22.4	2	6	248	0.00	30.207 
16:20	28.4	28.4	28.4	78	22.4	2	4	248	0.00	30.207 
16:25	28.5	28.5	28.5	78	22.5	3	6	248	0.00	30.207 
16:30	28.5	28.5	28.5	77	22.2	2	5	248	0.00	30.215 
16:35	28.5	28.5	28.5	77	22.2	2	5	270	0.00	30.215 
16:40	28.5	28.5	28.5	78	22.5	2	7	225	0.00	30.215 
16:45	28.5	28.5	28.5	78	22.5	1	3	248	0.00	30.219 
16:50	28.4	28.4	28.4	79	22.7	1	3	248	0.00	30.219 
16:55	28.2	28.2	28.2	80	22.8	1	3	248	0.00	30.219 
17:00	28.2	28.2	28.2	81	23.1	1	5	248	0.00	30.220 
17:05	28.1	28.1	28.1	81	23.0	2	4	248	0.00	30.220 
17:10	28.1	28.1	28.1	81	23.0	2	4	248	0.00	30.220 
17:15	28.1	28.1	28.1	81	23.0	1	3	248	0.00	30.225 
17:20	28.1	28.1	28.1	81	23.0	1	3	248	0.00	30.225 
17:25	28.1	28.1	28.1	81	23.0	1	4	248	0.00	30.225 
17:30	28.1	28.1	28.1	81	23.0	2	4	248	0.00	30.229 
17:35	28.1	28.1	28.1	81	23.0	1	4	248	0.00	30.229 
17:40	28.2	28.2	28.2	81	23.1	1	3	248	0.00	30.229 
17:45	28.2	28.2	28.2	80	22.8	1	3	248	0.00	30.229 
17:50	28.2	28.2	28.2	79	22.5	1	3	248	0.00	30.229 
17:55	28.4	28.4	28.4	78	22.4	2	4	248	0.00	30.229 
18:00	28.5	28.5	28.5	78	22.5	1	5	248	0.00	30.231 
18:05	28.5	28.5	28.5	77	22.2	1	4	248	0.00	30.231 
18:10	28.7	28.7	28.7	77	22.4	1	4	248	0.00	30.231 
18:15	28.7	28.7	28.7	77	22.4	1	6	248	0.00	30.234 
18:20	28.7	28.7	28.7	77	22.4	1	5	248	0.00	30.234 
18:25	28.7	28.7	28.7	77	22.4	1	4	248	0.00	30.234 
18:30	28.7	28.7	28.7	77	22.4	1	4	248	0.00	30.234 
18:35	28.7	28.7	28.7	75	21.8	1	4	248	0.00	30.234 
18:40	28.7	28.7	28.7	75	21.8	1	4	248	0.00	30.234 
18:45	28.7	28.7	28.7	74	21.5	1	3	248	0.00	30.241 
18:50	28.7	28.7	28.7	74	21.5	1	3	248	0.00	30.241 
18:55	28.8	28.8	28.8	74	21.6	0	2	248	0.00	30.241 
19:00	28.8	28.8	28.8	73	21.3	1	4	248	0.00	30.245 
19:05	28.8	28.8	28.8	73	21.3	1	4	248	0.00	30.245 
19:10	28.8	28.8	28.8	72	20.9	1	4	248	0.00	30.245 
19:15	28.8	28.8	28.8	72	20.9	1	4	248	0.00	30.245 
19:20	28.8	28.8	28.8	72	20.9	1	3	248	0.00	30.245 
19:25	28.7	28.7	28.7	71	20.5	1	3	248	0.00	30.245 
19:30	28.7	28.7	28.7	71	20.5	1	3	248	0.00	30.249 
19:35	28.7	28.7	28.7	71	20.5	1	3	248	0.00	30.249 
19:40	28.7	28.7	28.7	71	20.5	1	4	248	0.00	30.249 
19:45	28.7	28.7	28.7	71	20.5	0	2	248	0.00	30.253 
19:50	28.7	28.7	28.7	71	20.5	1	3	248	0.00	30.253 
19:55	28.7	28.7	28.7	71	20.5	0	3	248	0.00	30.253 
20:00	28.5	28.5	28.5	72	20.6	1	3	248	0.00	30.251 
20:05	28.5	28.5	28.5	72	20.6	1	2	248	0.00	30.251 
20:10	28.5	28.5	28.5	72	20.6	1	2	248	0.00	30.251 
20:15	28.5	28.5	28.5	72	20.6	1	5	248	0.00	30.256 
20:20	28.5	28.5	28.5	73	21.0	1	3	248	0.00	30.256 
20:25	28.5	28.5	28.5	73	21.0	1	3	248	0.00	30.256 
20:30	28.5	28.5	28.5	72	20.6	1	3	248	0.00	30.260 
20:35	28.5	28.5	28.5	73	21.0	1	2	248	0.00	30.260 
20:40	28.5	28.5	28.5	73	21.0	1	3	248	0.00	30.260 
20:45	28.5	28.5	28.5	73	21.0	1	3	248	0.00	30.261 
20:50	28.4	28.4	28.4	73	20.9	1	3	248	0.00	30.261 
20:55	28.4	28.4	28.4	73	20.9	0	2	248	0.00	30.261 
21:00	28.4	28.4	28.4	73	20.9	0	2	248	0.00	30.260 
21:05	28.4	28.4	28.4	72	20.5	1	3	248	0.00	30.260 
21:10	28.4	28.4	28.4	72	20.5	1	3	248	0.00	30.260 
21:15	28.4	28.4	28.4	72	20.5	0	3	248	0.00	30.258 
21:20	28.4	28.4	28.4	72	20.5	1	3	248	0.00	30.258 
21:25	28.4	28.4	28.4	71	20.2	1	2	248	0.00	30.258 
21:30	28.4	28.4	28.4	72	20.5	0	1	248	0.00	30.258 
21:35	28.2	28.2	28.2	72	20.4	0	2	248	0.00	30.258 
21:40	28.2	28.2	28.2	71	20.0	1	2	248	0.00	30.258 
21:45	28.2	28.2	28.2	70	19.7	1	2	248	0.00	30.258 
21:50	28.2	28.2	28.2	70	19.7	0	2	248	0.00	30.258 
21:55	28.2	28.2	28.2	71	20.0	0	1	248	0.00	30.258 
22:00	28.2	28.2	28.2	70	19.7	1	3	248	0.00	30.259 
22:05	28.2	28.2	28.2	70	19.7	1	2	248	0.00	30.259 
22:10	28.2	28.2	28.2	70	19.7	1	3	248	0.00	30.259 
22:15	28.2	28.2	28.2	70	19.7	1	3	248	0.00	30.258 
22:20	28.2	28.2	28.2	70	19.7	1	4	248	0.00	30.258 
22:25	28.2	28.2	28.2	70	19.7	1	3	248	0.00	30.258 
22:30	28.1	28.1	28.1	69	19.3	1	3	248	0.00	30.255 
22:35	28.1	28.1	28.1	69	19.3	1	3	248	0.00	30.255 
22:40	28.1	28.1	28.1	69	19.3	0	2	248	0.00	30.255 
22:45	27.9	27.9	27.9	69	19.1	0	2	248	0.00	30.256 
22:50	27.9	27.9	27.9	69	19.1	1	2	248	0.00	30.256 
22:55	27.9	27.9	27.9	69	19.1	0	2	248	0.00	30.256 
23:00	27.9	27.9	27.9	69	19.1	0	2	248	0.00	30.256 
23:05	27.9	27.9	27.9	69	19.1	1	3	248	0.00	30.256 
23:10	27.9	27.9	27.9	69	19.1	1	3	248	0.00	30.256 
23:15	27.9	27.9	27.9	69	19.1	0	2	248	0.00	30.254 
23:20	27.8	27.8	27.8	69	19.0	0	2	248	0.00	30.254 
23:25	27.8	27.8	27.8	69	19.0	1	2	248	0.00	30.254 
23:30	27.8	27.8	27.8	69	19.0	1	3	248	0.00	30.254 
23:35	27.8	27.8	27.8	69	19.0	0	2	248	0.00	30.254 
23:40	27.8	27.8	27.8	70	19.3	1	3	248	0.00	30.254 
23:45	27.8	27.8	27.8	70	19.3	1	3	248	0.00	30.256 
23:50	27.8	27.8	27.8	71	19.6	1	5	248	0.00	30.256 
23:55	27.8	27.8	27.8	71	19.6	2	4	248	0.00	30.256 

CoCoRaHS
IN-AL-39
A2 Web Hosting
Creative Commons License
GoDaddy
search engine by freefind advanced

loaded 2018-11-18 11:26:05 • last modified 2010-11-18 10:43:29
Privacy PolicyDisclaimer
• wx.awcolley.com is powered by PmWiki v.2002016 •
• all content (unless otherwise noted) © 2018 A W Colley